createdAt,value
2022-11-14T00:02:32.310Z,0.00
2022-11-14T00:07:32.162Z,0.00
2022-11-14T00:12:32.103Z,0.00
2022-11-14T00:17:32.031Z,0.00
2022-11-14T00:22:31.973Z,0.00
2022-11-14T00:27:31.900Z,0.00
2022-11-14T00:32:31.843Z,0.00
2022-11-14T00:37:31.781Z,0.00
2022-11-14T00:42:31.711Z,0.00
2022-11-14T00:47:31.638Z,0.00
2022-11-14T00:52:31.582Z,0.00
2022-11-14T00:57:31.506Z,0.00
2022-11-14T01:02:31.453Z,0.00
2022-11-14T01:07:31.386Z,0.00
2022-11-14T01:12:31.324Z,0.00
2022-11-14T01:17:31.254Z,0.00
2022-11-14T01:22:31.197Z,0.00
2022-11-14T01:27:31.133Z,0.00
2022-11-14T01:32:31.075Z,0.00
2022-11-14T01:37:31.002Z,0.00
2022-11-14T01:42:30.948Z,0.00
2022-11-14T01:47:30.880Z,0.00
2022-11-14T01:52:30.822Z,0.00
2022-11-14T01:57:30.751Z,0.00
2022-11-14T02:02:30.696Z,0.00
2022-11-14T02:07:30.744Z,0.00
2022-11-14T02:12:30.578Z,0.00
2022-11-14T02:17:31.233Z,0.00
2022-11-14T02:22:30.448Z,0.00
2022-11-14T02:27:30.375Z,0.00
2022-11-14T02:32:45.038Z,0.00
2022-11-14T02:37:31.279Z,0.00
2022-11-14T02:42:30.195Z,0.00
2022-11-14T02:47:30.123Z,0.00
2022-11-14T02:52:30.070Z,0.00
2022-11-14T02:57:29.996Z,0.00
2022-11-14T03:02:29.943Z,0.00
2022-11-14T03:07:29.961Z,0.00
2022-11-14T03:12:29.820Z,0.00
2022-11-14T03:17:29.748Z,0.00
2022-11-14T03:22:29.693Z,0.00
2022-11-14T03:27:29.624Z,0.00
2022-11-14T03:32:29.574Z,0.00
2022-11-14T03:37:29.500Z,0.00
2022-11-14T03:42:29.444Z,0.00
2022-11-14T03:47:29.372Z,0.00
2022-11-14T03:52:29.323Z,0.00
2022-11-14T03:57:29.247Z,0.00
2022-11-14T04:02:29.196Z,0.00
2022-11-14T04:07:29.196Z,0.00
2022-11-14T04:12:29.070Z,0.00
2022-11-14T04:17:29.002Z,0.00
2022-11-14T04:22:28.942Z,0.00
2022-11-14T04:27:28.871Z,0.00
2022-11-14T04:32:28.816Z,0.00
2022-11-14T04:37:28.744Z,0.00
2022-11-14T04:42:28.690Z,0.00
2022-11-14T04:47:28.629Z,0.00
2022-11-14T04:52:28.549Z,0.00
2022-11-14T04:57:28.478Z,0.00
2022-11-14T05:02:28.423Z,0.00
2022-11-14T05:07:28.462Z,0.00
2022-11-14T05:12:28.292Z,0.00
2022-11-14T05:17:28.221Z,0.00
2022-11-14T05:22:28.164Z,0.00
2022-11-14T05:27:28.093Z,0.00
2022-11-14T05:32:28.038Z,0.00
2022-11-14T05:37:27.980Z,0.00
2022-11-14T05:42:27.910Z,0.00
2022-11-14T05:47:27.866Z,0.00
2022-11-14T05:52:27.781Z,4.00
2022-11-14T05:57:27.709Z,4.00
2022-11-14T06:02:27.709Z,8.00
2022-11-14T06:07:27.635Z,24.00
2022-11-14T06:12:27.526Z,48.00
2022-11-14T06:17:27.452Z,92.00
2022-11-14T06:22:27.403Z,152.00
2022-11-14T06:27:27.325Z,252.00
2022-11-14T06:32:27.270Z,368.00
2022-11-14T06:37:31.366Z,536.00
2022-11-14T06:42:27.144Z,712.00
2022-11-14T06:47:27.071Z,984.00
2022-11-14T06:52:27.014Z,1212.00
2022-11-14T06:57:26.944Z,1420.00
2022-11-14T07:02:26.891Z,1732.00
2022-11-14T07:07:28.714Z,1900.00
2022-11-14T07:12:26.757Z,2452.00
2022-11-14T07:17:30.958Z,2808.00
2022-11-14T07:22:26.631Z,3072.00
2022-11-14T07:27:26.558Z,3412.00
2022-11-14T07:32:26.501Z,4324.00
2022-11-14T07:37:26.431Z,4676.00
2022-11-14T07:42:26.375Z,6008.00
2022-11-14T07:47:26.302Z,7000.00
2022-11-14T07:52:26.250Z,7596.00
2022-11-14T07:57:26.179Z,10684.00
2022-11-14T08:02:26.122Z,10180.00
2022-11-14T08:07:26.067Z,8568.00
2022-11-14T08:12:26.002Z,11240.00
2022-11-14T08:17:25.925Z,14844.00
2022-11-14T08:22:25.871Z,22208.00
2022-11-14T08:27:25.795Z,32384.00
2022-11-14T08:32:25.740Z,37152.00
2022-11-14T08:37:25.664Z,39968.00
2022-11-14T08:42:25.607Z,38272.00
2022-11-14T08:47:25.539Z,42400.00
2022-11-14T08:52:25.475Z,43488.00
2022-11-14T08:57:25.407Z,44704.00
2022-11-14T09:02:25.344Z,39616.00
2022-11-14T09:07:25.336Z,44448.00
2022-11-14T09:12:25.210Z,45696.00
2022-11-14T09:17:25.140Z,44000.00
2022-11-14T09:22:25.078Z,43712.00
2022-11-14T09:27:25.006Z,43808.00
2022-11-14T09:32:24.949Z,46976.00
2022-11-14T09:37:24.880Z,44416.00
2022-11-14T09:42:24.819Z,47136.00
2022-11-14T09:47:24.752Z,46528.00
2022-11-14T09:52:24.688Z,44384.00
2022-11-14T09:57:24.618Z,44512.00
2022-11-14T10:02:24.631Z,44992.00
2022-11-14T10:07:24.552Z,43776.00
2022-11-14T10:12:24.433Z,41728.00
2022-11-14T10:17:24.358Z,42496.00
2022-11-14T10:22:24.302Z,41952.00
2022-11-14T10:27:24.229Z,41408.00
2022-11-14T10:32:24.174Z,40288.00
2022-11-14T10:37:24.101Z,39584.00
2022-11-14T10:42:24.047Z,36288.00
2022-11-14T10:47:23.977Z,33280.00
2022-11-14T10:52:23.921Z,40640.00
2022-11-14T10:57:23.851Z,32128.00
2022-11-14T11:02:23.793Z,37792.00
2022-11-14T11:07:23.819Z,30464.00
2022-11-14T11:12:23.753Z,23552.00
2022-11-14T11:17:25.092Z,20864.00
2022-11-14T11:22:23.530Z,19264.00
2022-11-14T11:27:23.459Z,19392.00
2022-11-14T11:32:23.392Z,16864.00
2022-11-14T11:37:23.379Z,16448.00
2022-11-14T11:42:23.259Z,16448.00
2022-11-14T11:47:23.204Z,16256.00
2022-11-14T11:52:23.128Z,15968.00
2022-11-14T11:57:23.068Z,16160.00
2022-11-14T12:02:23.154Z,15904.00
2022-11-14T12:07:22.991Z,19584.00
2022-11-14T12:12:22.866Z,28480.00
2022-11-14T12:17:22.811Z,20416.00
2022-11-14T12:22:22.736Z,8548.00
2022-11-14T12:27:22.762Z,7748.00
2022-11-14T12:32:22.604Z,4232.00
2022-11-14T12:37:22.652Z,4008.00
2022-11-14T12:42:22.480Z,3628.00
2022-11-14T12:47:22.423Z,3524.00
2022-11-14T12:52:22.345Z,3456.00
2022-11-14T12:57:22.286Z,3424.00
2022-11-14T13:02:22.767Z,3376.00
2022-11-14T13:07:22.306Z,3292.00
2022-11-14T13:12:22.081Z,3268.00
2022-11-14T13:17:22.025Z,3048.00
2022-11-14T13:22:21.951Z,2932.00
2022-11-14T13:27:30.500Z,2564.00
2022-11-14T13:32:22.847Z,2932.00
2022-11-14T13:37:21.761Z,2796.00
2022-11-14T13:42:21.689Z,2660.00
2022-11-14T13:47:21.635Z,2396.00
2022-11-14T13:52:21.558Z,2184.00
2022-11-14T13:57:21.507Z,2624.00
2022-11-14T14:02:21.430Z,2492.00
2022-11-14T14:07:21.409Z,2304.00
2022-11-14T14:12:21.298Z,2560.00
2022-11-14T14:17:21.239Z,2628.00
2022-11-14T14:22:21.168Z,2776.00
2022-11-14T14:27:21.110Z,2148.00
2022-11-14T14:32:21.037Z,2048.00
2022-11-14T14:37:20.990Z,1584.00
2022-11-14T14:42:20.905Z,1396.00
2022-11-14T14:47:20.849Z,1240.00
2022-11-14T14:52:20.779Z,1112.00
2022-11-14T14:57:23.369Z,944.00
2022-11-14T15:02:20.649Z,824.00
2022-11-14T15:07:20.701Z,700.00
2022-11-14T15:12:20.516Z,552.00
2022-11-14T15:17:20.468Z,428.00
2022-11-14T15:22:20.385Z,304.00
2022-11-14T15:27:20.325Z,196.00
2022-11-14T15:32:20.253Z,116.00
2022-11-14T15:37:20.196Z,60.00
2022-11-14T15:42:20.120Z,32.00
2022-11-14T15:47:20.075Z,16.00
2022-11-14T15:52:19.987Z,4.00
2022-11-14T15:57:19.930Z,4.00
2022-11-14T16:02:19.864Z,0.00
2022-11-14T16:07:19.861Z,0.00
2022-11-14T16:12:19.726Z,0.00
2022-11-14T16:17:19.669Z,0.00
2022-11-14T16:22:19.591Z,0.00
2022-11-14T16:27:19.535Z,0.00
2022-11-14T16:32:19.462Z,0.00
2022-11-14T16:37:19.403Z,0.00
2022-11-14T16:42:19.330Z,0.00
2022-11-14T16:47:19.273Z,0.00
2022-11-14T16:52:19.204Z,0.00
2022-11-14T16:57:19.142Z,0.00
2022-11-14T17:02:19.160Z,0.00
2022-11-14T17:07:22.876Z,0.00
2022-11-14T17:12:18.942Z,0.00
2022-11-14T17:17:18.888Z,0.00
2022-11-14T17:22:18.810Z,0.00
2022-11-14T17:27:18.752Z,0.00
2022-11-14T17:32:18.679Z,0.00
2022-11-14T17:37:18.623Z,0.00
2022-11-14T17:42:18.550Z,0.00
2022-11-14T17:47:18.493Z,0.00
2022-11-14T17:52:18.418Z,0.00
2022-11-14T17:57:18.363Z,0.00
2022-11-14T18:02:18.291Z,0.00
2022-11-14T18:07:18.610Z,0.00
2022-11-14T18:12:18.158Z,0.00
2022-11-14T18:17:18.114Z,0.00
2022-11-14T18:22:18.025Z,0.00
2022-11-14T18:27:17.970Z,0.00
2022-11-14T18:32:17.897Z,0.00
2022-11-14T18:37:17.838Z,0.00
2022-11-14T18:42:17.763Z,0.00
2022-11-14T18:47:17.704Z,0.00
2022-11-14T18:52:17.911Z,0.00
2022-11-14T18:57:17.572Z,0.00
2022-11-14T19:02:17.568Z,0.00
2022-11-14T19:07:17.478Z,0.00
2022-11-14T19:12:17.387Z,0.00
2022-11-14T19:17:17.312Z,0.00
2022-11-14T19:22:17.269Z,0.00
2022-11-14T19:27:17.177Z,0.00
2022-11-14T19:32:17.107Z,0.00
2022-11-14T19:37:17.048Z,0.00
2022-11-14T19:42:16.976Z,0.00
2022-11-14T19:47:16.929Z,0.00
2022-11-14T19:52:18.050Z,0.00
2022-11-14T19:57:16.786Z,0.00
2022-11-14T20:02:16.715Z,0.00
2022-11-14T20:07:16.737Z,0.00
2022-11-14T20:12:16.606Z,0.00
2022-11-14T20:17:16.528Z,0.00
2022-11-14T20:22:16.453Z,0.00
2022-11-14T20:27:16.396Z,0.00
2022-11-14T20:32:16.327Z,0.00
2022-11-14T20:37:16.268Z,0.00
2022-11-14T20:42:16.193Z,0.00
2022-11-14T20:47:16.428Z,0.00
2022-11-14T20:52:16.063Z,0.00
2022-11-14T20:57:16.002Z,0.00
2022-11-14T21:02:16.028Z,0.00
2022-11-14T21:07:15.931Z,0.00
2022-11-14T21:12:15.798Z,0.00
2022-11-14T21:17:15.744Z,0.00
2022-11-14T21:22:15.688Z,0.00
2022-11-14T21:27:15.608Z,0.00
2022-11-14T21:32:15.541Z,0.00
2022-11-14T21:37:15.478Z,0.00
2022-11-14T21:42:18.433Z,0.00
2022-11-14T21:47:15.348Z,0.00
2022-11-14T21:52:15.273Z,0.00
2022-11-14T21:57:15.216Z,0.00
2022-11-14T22:02:15.197Z,0.00
2022-11-14T22:07:15.126Z,0.00
2022-11-14T22:12:15.010Z,0.00
2022-11-14T22:17:14.967Z,0.00
2022-11-14T22:22:14.881Z,0.00
2022-11-14T22:27:14.825Z,0.00
2022-11-14T22:32:14.750Z,0.00
2022-11-14T22:37:14.728Z,0.00
2022-11-14T22:42:14.620Z,0.00
2022-11-14T22:47:14.640Z,0.00
2022-11-14T22:52:14.547Z,0.00
2022-11-14T22:57:14.431Z,0.00
2022-11-14T23:02:14.357Z,0.00
2022-11-14T23:07:14.407Z,0.00
2022-11-14T23:12:14.225Z,0.00
2022-11-14T23:17:14.188Z,0.00
2022-11-14T23:22:14.093Z,0.00
2022-11-14T23:27:14.035Z,0.00
2022-11-14T23:32:13.964Z,0.00
2022-11-14T23:37:13.904Z,0.00
2022-11-14T23:42:13.827Z,0.00
2022-11-14T23:47:13.769Z,0.00
2022-11-14T23:52:13.697Z,0.00
2022-11-14T23:57:13.639Z,0.00
